Time;durP1;ratioP1;P1;durP2;ratioP2;P2;SDS_P1;SDS_P2;PMS_P1;PMS_P2;Temp;Humidity;BMP_temperature;BMP_pressure;BME280_temperature;BME280_humidity;BME280_pressure;Samples;Min_cycle;Max_cycle;Signal;HPM_P1;HPM_P2
2022/12/08 00:01:33;;;;;;;15.88;8.85;;;0.50;99.90;;;;;;4971960;28;20529;-60
2022/12/08 00:04:00;;;;;;;27.33;9.85;;;0.50;99.90;;;;;;4972213;28;20101;-60
2022/12/08 00:09:25;;;;;;;23.52;8.82;;;0.50;99.90;;;;;;4972355;28;20051;-61
2022/12/08 00:11:59;;;;;;;19.33;8.55;;;0.60;99.90;;;;;;4971764;28;20565;-61
2022/12/08 00:14:30;;;;;;;20.35;9.20;;;0.60;99.90;;;;;;4971532;28;20042;-61
2022/12/08 00:16:57;;;;;;;17.17;8.95;;;0.60;99.90;;;;;;4971904;28;20126;-62
2022/12/08 00:19:24;;;;;;;18.23;9.27;;;0.60;99.90;;;;;;4972355;28;20066;-65
2022/12/08 00:21:51;;;;;;;25.73;9.35;;;0.60;99.90;;;;;;4971659;28;20142;-61
2022/12/08 00:24:19;;;;;;;22.45;8.70;;;0.60;99.90;;;;;;4971504;28;20043;-61
2022/12/08 00:26:45;;;;;;;21.70;9.57;;;0.50;99.90;;;;;;4971409;28;20138;-61
2022/12/08 00:29:12;;;;;;;19.10;9.45;;;0.50;99.90;;;;;;4971658;28;20085;-61
2022/12/08 00:31:43;;;;;;;22.65;9.20;;;0.60;99.90;;;;;;4971582;28;20062;-60
2022/12/08 00:34:11;;;;;;;16.30;8.57;;;0.60;99.90;;;;;;4971560;28;20046;-60
2022/12/08 00:36:38;;;;;;;22.33;8.85;;;0.60;99.90;;;;;;4972010;28;20050;-60
2022/12/08 00:39:05;;;;;;;16.35;8.25;;;0.60;99.90;;;;;;4971193;28;20122;-59
2022/12/08 00:44:17;;;;;;;21.52;8.38;;;0.50;99.90;;;;;;4971209;28;20142;-60
2022/12/08 00:46:44;;;;;;;17.77;8.70;;;0.50;99.90;;;;;;4971386;28;20082;-60
2022/12/08 00:49:11;;;;;;;24.00;11.23;;;0.50;99.90;;;;;;4971535;28;20066;-60
2022/12/08 00:51:38;;;;;;;16.77;8.02;;;0.50;99.90;;;;;;4971648;28;20699;-60
2022/12/08 00:54:05;;;;;;;20.38;9.40;;;0.50;99.90;;;;;;4969143;28;20105;-61
2022/12/08 00:56:32;;;;;;;15.35;7.15;;;0.50;99.90;;;;;;4971200;28;20082;-60
2022/12/08 00:58:59;;;;;;;14.25;6.88;;;0.50;99.90;;;;;;4970883;28;20078;-61
2022/12/08 01:01:26;;;;;;;21.77;9.38;;;0.50;99.90;;;;;;4971642;28;20074;-60
2022/12/08 01:03:53;;;;;;;20.15;8.30;;;0.50;99.90;;;;;;4970891;28;20047;-61
2022/12/08 01:06:20;;;;;;;16.30;7.32;;;0.50;99.90;;;;;;4971403;28;20082;-60
2022/12/08 01:08:46;;;;;;;14.00;7.95;;;0.50;99.90;;;;;;4626195;28;10000593;-60
2022/12/08 01:11:16;;;;;;;20.25;9.68;;;0.50;99.90;;;;;;4970829;28;20093;-61
2022/12/08 01:13:43;;;;;;;18.75;8.57;;;0.50;99.90;;;;;;4970739;28;20074;-61
2022/12/08 01:16:17;;;;;;;18.17;7.80;;;0.50;99.90;;;;;;4971010;28;20130;-61
2022/12/08 01:18:44;;;;;;;19.10;8.60;;;0.50;99.90;;;;;;4970694;28;20047;-60
2022/12/08 01:21:10;;;;;;;19.40;9.20;;;0.50;99.90;;;;;;4970891;28;20134;-60
2022/12/08 01:23:37;;;;;;;19.77;8.98;;;0.40;99.90;;;;;;4959799;28;20128;-60
2022/12/08 01:26:05;;;;;;;17.13;8.02;;;0.40;99.90;;;;;;4968453;28;20130;-61
2022/12/08 01:28:32;;;;;;;14.80;7.93;;;0.40;99.90;;;;;;4970890;28;20293;-61
2022/12/08 01:30:59;;;;;;;18.80;9.10;;;0.40;99.90;;;;;;4970403;28;20085;-61
2022/12/08 01:33:26;;;;;;;25.30;8.77;;;0.30;99.90;;;;;;4970756;28;20082;-59
2022/12/08 01:35:54;;;;;;;16.58;8.18;;;0.20;99.90;;;;;;4969053;28;20085;-59
2022/12/08 01:38:21;;;;;;;19.08;8.88;;;0.20;99.90;;;;;;4969504;28;20047;-60
2022/12/08 01:40:48;;;;;;;17.98;8.07;;;0.20;99.90;;;;;;4970176;28;20085;-60
2022/12/08 01:43:15;;;;;;;22.00;9.52;;;0.10;99.90;;;;;;4985510;28;20133;-59
2022/12/08 01:45:42;;;;;;;17.48;8.77;;;0.20;99.90;;;;;;4970017;28;20089;-59
2022/12/08 01:48:17;;;;;;;23.02;8.48;;;0.10;99.90;;;;;;4970451;28;20202;-60
2022/12/08 01:50:45;;;;;;;20.30;9.50;;;0.10;99.90;;;;;;4968981;28;20130;-60
2022/12/08 01:53:31;;;;;;;23.23;8.60;;;0.10;99.90;;;;;;4968512;28;20047;-61
2022/12/08 01:56:01;;;;;;;23.10;9.35;;;0.10;99.90;;;;;;4968255;28;20057;-60
2022/12/08 01:58:34;;;;;;;19.38;9.13;;;0.10;99.90;;;;;;4985716;28;20166;-60
2022/12/08 02:01:01;;;;;;;18.25;7.93;;;0.10;99.90;;;;;;4970500;28;20047;-60
2022/12/08 02:03:34;;;;;;;20.25;8.32;;;0.10;99.90;;;;;;4971632;28;20074;-60
2022/12/08 02:06:02;;;;;;;16.63;7.90;;;0.00;99.90;;;;;;4968723;28;20097;-59
2022/12/08 02:08:28;;;;;;;14.00;7.85;;;0.00;99.90;;;;;;4969977;28;20505;-60
2022/12/08 02:10:55;;;;;;;15.82;9.38;;;0.10;99.90;;;;;;4968816;28;20054;-61
2022/12/08 02:13:22;;;;;;;20.20;9.05;;;0.00;99.90;;;;;;4969826;28;20062;-60
2022/12/08 02:15:55;;;;;;;15.93;8.35;;;0.00;99.90;;;;;;4969754;28;20129;-60
2022/12/08 02:18:41;;;;;;;18.38;8.88;;;0.00;99.90;;;;;;4969812;28;20066;-60
2022/12/08 02:21:14;;;;;;;18.90;7.93;;;0.00;99.90;;;;;;4969666;28;20509;-61
2022/12/08 02:24:02;;;;;;;25.63;9.40;;;0.00;99.90;;;;;;4962978;28;20137;-60
2022/12/08 02:26:41;;;;;;;24.48;9.57;;;0.00;99.90;;;;;;4968580;28;20042;-60
2022/12/08 02:29:23;;;;;;;18.50;8.55;;;0.00;99.90;;;;;;4969934;28;20050;-60
2022/12/08 02:32:28;;;;;;;15.40;8.50;;;0.00;99.90;;;;;;4968182;28;20089;-60
2022/12/08 02:35:17;;;;;;;26.47;9.13;;;0.00;99.90;;;;;;4968257;28;20085;-60
2022/12/08 02:38:18;;;;;;;18.52;7.93;;;0.00;99.90;;;;;;4969197;28;20042;-60
2022/12/08 02:41:09;;;;;;;14.82;6.90;;;0.00;99.90;;;;;;4969406;28;20090;-60
2022/12/08 02:44:07;;;;;;;20.73;9.35;;;-0.10;99.90;;;;;;4969227;28;20689;-60
2022/12/08 02:46:47;;;;;;;19.75;7.45;;;-0.10;99.90;;;;;;4968352;28;20108;-60
2022/12/08 02:49:15;;;;;;;15.15;8.35;;;-0.10;99.90;;;;;;4968861;28;20105;-61
2022/12/08 02:51:42;;;;;;;18.85;8.07;;;-0.20;99.90;;;;;;4967952;28;20057;-60
2022/12/08 02:54:09;;;;;;;14.48;8.75;;;-0.20;99.90;;;;;;4967242;28;20051;-60
2022/12/08 02:57:16;;;;;;;27.83;9.48;;;0.10;99.90;;;;;;4968199;28;20078;-59
2022/12/08 03:00:15;;;;;;;20.95;8.65;;;-0.20;99.90;;;;;;4970248;28;20077;-61
2022/12/08 03:03:06;;;;;;;19.80;8.50;;;-0.20;99.90;;;;;;4983776;28;20074;-60
2022/12/08 03:05:55;;;;;;;15.57;8.80;;;-0.30;99.90;;;;;;4960075;28;20090;-60
2022/12/08 03:08:50;;;;;;;15.15;8.68;;;-0.30;99.90;;;;;;4967653;28;20078;-65
2022/12/08 03:11:29;;;;;;;23.45;9.52;;;-0.30;99.90;;;;;;4968151;28;20059;-60
2022/12/08 03:13:58;;;;;;;19.77;9.38;;;-0.20;99.90;;;;;;4967646;28;20070;-60
2022/12/08 03:16:27;;;;;;;19.40;8.82;;;-0.20;99.90;;;;;;4968299;28;20055;-61
2022/12/08 03:19:18;;;;;;;21.77;9.85;;;-0.30;99.90;;;;;;4967477;28;20046;-60
2022/12/08 03:22:01;;;;;;;14.68;8.85;;;-0.30;99.90;;;;;;4968190;28;20136;-61
2022/12/08 03:24:36;;;;;;;19.77;10.10;;;-0.30;99.90;;;;;;4968782;28;20047;-61
2022/12/08 03:27:13;;;;;;;23.33;10.05;;;-0.40;99.90;;;;;;4971348;28;20101;-61
2022/12/08 03:29:40;;;;;;;20.42;9.10;;;-0.40;99.90;;;;;;4971895;28;20565;-61
2022/12/08 03:32:22;;;;;;;24.27;10.40;;;-0.40;99.90;;;;;;4973011;28;20047;-60
2022/12/08 03:34:49;;;;;;;21.50;9.63;;;-0.40;99.90;;;;;;4971357;28;20081;-61
2022/12/08 03:37:16;;;;;;;24.05;9.93;;;-0.40;99.90;;;;;;4971749;28;20047;-61
2022/12/08 03:39:43;;;;;;;29.60;9.82;;;-0.30;99.90;;;;;;4987163;28;20477;-61
2022/12/08 03:42:09;;;;;;;17.92;9.68;;;-0.30;99.90;;;;;;4972898;28;20101;-59
2022/12/08 03:44:36;;;;;;;20.27;8.88;;;-0.30;99.90;;;;;;4972539;28;20130;-60
2022/12/08 03:47:03;;;;;;;25.58;9.75;;;-0.30;99.90;;;;;;4972444;28;20053;-59
2022/12/08 03:49:30;;;;;;;17.27;9.05;;;-0.30;99.90;;;;;;4972785;28;20447;-59
2022/12/08 03:51:56;;;;;;;24.13;12.07;;;-0.30;99.90;;;;;;4972069;28;20082;-60
2022/12/08 03:54:23;;;;;;;18.48;9.45;;;-0.30;99.90;;;;;;4972877;28;20146;-60
2022/12/08 03:56:50;;;;;;;22.60;9.55;;;-0.30;99.90;;;;;;4973223;28;20093;-60
2022/12/08 03:59:17;;;;;;;21.10;10.07;;;-0.30;99.90;;;;;;4988063;28;20138;-61
2022/12/08 04:01:43;;;;;;;20.27;10.10;;;-0.40;99.90;;;;;;4973372;28;20053;-61
2022/12/08 04:04:10;;;;;;;18.23;10.52;;;-0.40;99.90;;;;;;4963523;28;20086;-61
2022/12/08 04:06:37;;;;;;;19.73;9.65;;;-0.40;99.90;;;;;;4978865;28;20142;-60
2022/12/08 04:09:04;;;;;;;21.10;10.85;;;-0.40;99.90;;;;;;4960037;28;20079;-61
2022/12/08 04:11:30;;;;;;;19.05;9.85;;;-0.40;99.90;;;;;;4969723;28;20043;-61
2022/12/08 04:13:57;;;;;;;23.98;9.57;;;-0.50;99.90;;;;;;4972120;28;20458;-61
2022/12/08 04:16:25;;;;;;;22.95;10.05;;;-0.50;99.90;;;;;;4987032;28;20047;-61
2022/12/08 04:18:52;;;;;;;27.90;10.00;;;-0.50;99.90;;;;;;4971842;28;20050;-61
2022/12/08 04:21:19;;;;;;;26.27;10.43;;;-0.50;99.90;;;;;;4971943;28;20138;-61
2022/12/08 04:23:45;;;;;;;20.30;9.85;;;-0.50;99.90;;;;;;4969511;28;20058;-61
2022/12/08 04:26:12;;;;;;;20.35;10.07;;;-0.50;99.90;;;;;;4971880;28;20129;-60
2022/12/08 04:28:39;;;;;;;19.77;9.93;;;-0.50;99.90;;;;;;4971018;28;20074;-60
2022/12/08 04:31:06;;;;;;;25.58;9.00;;;-0.50;99.90;;;;;;4960506;28;20149;-61
2022/12/08 04:33:34;;;;;;;15.23;9.20;;;-0.50;99.90;;;;;;4971743;28;20065;-61
2022/12/08 04:36:01;;;;;;;18.65;9.63;;;-0.50;99.90;;;;;;4971104;28;20070;-60
2022/12/08 04:38:28;;;;;;;25.98;10.45;;;-0.60;99.90;;;;;;4971685;28;20086;-59
2022/12/08 04:40:55;;;;;;;22.80;10.88;;;-0.60;99.90;;;;;;4971507;28;20146;-59
2022/12/08 04:43:22;;;;;;;22.65;10.60;;;-0.60;99.90;;;;;;4971516;28;20051;-59
2022/12/08 04:45:49;;;;;;;17.17;9.52;;;-0.60;99.90;;;;;;4971347;28;20137;-59
2022/12/08 04:48:15;;;;;;;22.23;10.90;;;-0.50;99.90;;;;;;4968089;28;20078;-59
2022/12/08 04:50:43;;;;;;;16.10;9.32;;;-0.50;99.90;;;;;;4970330;28;20124;-60
2022/12/08 04:53:10;;;;;;;18.85;9.65;;;-0.60;99.90;;;;;;4970125;28;20050;-59
2022/12/08 04:55:42;;;;;;;22.05;9.85;;;-0.60;99.90;;;;;;4973285;28;20046;-59
2022/12/08 04:58:13;;;;;;;23.63;11.45;;;-0.50;99.90;;;;;;4971652;28;20085;-59
2022/12/08 05:00:40;;;;;;;19.85;9.18;;;-0.60;99.90;;;;;;4971740;28;20047;-60
2022/12/08 05:03:07;;;;;;;21.48;8.60;;;-0.60;99.90;;;;;;4971145;28;20085;-59
2022/12/08 05:05:34;;;;;;;23.08;8.65;;;-0.70;99.90;;;;;;4950950;28;20051;-60
2022/12/08 05:08:01;;;;;;;18.33;10.60;;;-0.60;99.90;;;;;;4965152;28;20074;-60
2022/12/08 05:10:28;;;;;;;23.17;10.30;;;-0.70;99.90;;;;;;4971260;28;20049;-60
2022/12/08 05:12:54;;;;;;;21.45;10.85;;;-0.70;99.90;;;;;;4970647;28;20078;-59
2022/12/08 05:15:21;;;;;;;19.23;10.13;;;-0.70;99.90;;;;;;4971344;28;20078;-59
2022/12/08 05:17:48;;;;;;;18.85;10.70;;;-0.80;99.90;;;;;;4969304;28;20038;-60
2022/12/08 05:20:15;;;;;;;24.40;11.20;;;-0.80;99.90;;;;;;4971110;28;20147;-60
2022/12/08 05:22:42;;;;;;;18.50;10.40;;;-0.80;99.90;;;;;;4970024;28;20070;-61
2022/12/08 05:25:09;;;;;;;19.13;10.48;;;-0.80;99.90;;;;;;4970843;28;20056;-60
2022/12/08 05:27:36;;;;;;;20.38;11.70;;;-0.80;99.90;;;;;;4966201;28;20142;-59
2022/12/08 05:30:03;;;;;;;20.88;11.20;;;-0.80;99.90;;;;;;4970209;28;20108;-59
2022/12/08 05:32:30;;;;;;;23.10;11.57;;;-0.80;99.90;;;;;;4970657;28;20046;-60
2022/12/08 05:34:57;;;;;;;21.88;10.73;;;-0.70;99.90;;;;;;4970574;28;20074;-60
2022/12/08 05:37:24;;;;;;;17.23;10.63;;;-0.80;99.90;;;;;;4970483;28;20151;-57
2022/12/08 05:39:51;;;;;;;22.88;10.30;;;-0.70;99.90;;;;;;4970062;28;20089;-60
2022/12/08 05:42:17;;;;;;;21.40;11.13;;;-0.90;99.90;;;;;;4970480;28;20082;-60
2022/12/08 05:44:50;;;;;;;19.40;11.57;;;-0.80;99.90;;;;;;4969953;28;20510;-60
2022/12/08 05:47:17;;;;;;;24.70;11.73;;;-0.90;99.90;;;;;;4968638;28;20450;-60
2022/12/08 05:49:43;;;;;;;22.88;11.68;;;-0.70;99.90;;;;;;4984700;28;20470;-59
2022/12/08 05:52:10;;;;;;;27.02;11.02;;;-0.80;99.90;;;;;;4965269;28;20043;-59
2022/12/08 05:54:37;;;;;;;22.13;11.07;;;-0.70;99.90;;;;;;4963851;28;20050;-59
2022/12/08 05:57:04;;;;;;;24.45;10.77;;;-0.70;99.90;;;;;;4969682;28;20059;-59
2022/12/08 05:59:31;;;;;;;18.50;11.13;;;-0.80;99.90;;;;;;4970177;28;20104;-57
2022/12/08 06:01:58;;;;;;;20.20;10.85;;;-0.80;99.90;;;;;;4970210;28;20664;-59
2022/12/08 06:04:25;;;;;;;19.65;11.15;;;-0.90;99.90;;;;;;4969884;28;20054;-61
2022/12/08 06:06:52;;;;;;;21.20;10.80;;;-0.90;99.90;;;;;;4969886;28;20051;-59
2022/12/08 06:09:18;;;;;;;21.60;10.77;;;-0.90;99.90;;;;;;4984645;28;20061;-59
2022/12/08 06:11:46;;;;;;;24.75;11.63;;;-0.90;99.90;;;;;;4969683;28;20524;-58
2022/12/08 06:14:12;;;;;;;23.63;10.55;;;-0.90;99.90;;;;;;4969877;28;20051;-61
2022/12/08 06:16:39;;;;;;;22.33;11.25;;;-0.90;99.90;;;;;;4968738;28;20079;-56
2022/12/08 06:19:06;;;;;;;20.10;11.07;;;-0.80;99.90;;;;;;4969287;28;20058;-59
2022/12/08 06:21:33;;;;;;;22.23;11.63;;;-0.90;99.90;;;;;;4969109;28;20082;-62
2022/12/08 06:24:00;;;;;;;19.98;11.32;;;-0.90;99.90;;;;;;4969338;28;20086;-60
2022/12/08 06:26:27;;;;;;;28.63;10.73;;;-0.90;99.90;;;;;;4969886;28;20051;-61
2022/12/08 06:28:54;;;;;;;21.30;11.05;;;-0.90;99.90;;;;;;4969450;28;20498;-60
2022/12/08 06:31:23;;;;;;;26.83;10.80;;;-0.90;99.90;;;;;;4968283;28;20051;-59
2022/12/08 06:33:50;;;;;;;20.40;10.70;;;-0.80;99.90;;;;;;4984332;28;20105;-59
2022/12/08 06:36:18;;;;;;;20.48;11.02;;;-0.80;99.90;;;;;;4968327;28;20133;-60
2022/12/08 06:38:45;;;;;;;23.10;11.68;;;-0.80;99.90;;;;;;4969414;28;20141;-60
2022/12/08 06:41:12;;;;;;;21.58;11.13;;;-0.90;99.90;;;;;;4969558;28;20050;-59
2022/12/08 06:43:39;;;;;;;25.73;11.55;;;-1.00;99.90;;;;;;4969470;28;20141;-60
2022/12/08 06:46:09;;;;;;;18.33;10.00;;;-1.00;99.90;;;;;;4961362;28;20046;-59
2022/12/08 06:48:36;;;;;;;20.60;10.85;;;-1.00;99.90;;;;;;4960154;28;20055;-59
2022/12/08 06:51:07;;;;;;;19.08;10.27;;;-1.00;99.90;;;;;;4964155;28;20454;-60
2022/12/08 06:53:34;;;;;;;20.15;10.25;;;-1.00;99.90;;;;;;4969378;28;20137;-60
2022/12/08 06:56:01;;;;;;;20.70;10.60;;;-1.00;99.90;;;;;;4969027;28;20088;-60
2022/12/08 06:58:27;;;;;;;17.40;11.77;;;-0.90;99.90;;;;;;4969326;28;20086;-59
2022/12/08 07:00:54;;;;;;;26.20;11.30;;;-0.90;99.90;;;;;;4969013;28;20046;-61
2022/12/08 07:03:21;;;;;;;22.77;11.20;;;-1.00;99.90;;;;;;4969373;28;20047;-59
2022/12/08 07:05:48;;;;;;;19.40;11.00;;;-0.90;99.90;;;;;;4954383;28;20086;-59
2022/12/08 07:08:15;;;;;;;18.67;12.32;;;-0.80;99.90;;;;;;4969332;28;20442;-60
2022/12/08 07:10:42;;;;;;;22.63;9.93;;;-0.80;99.90;;;;;;4983636;28;20499;-58
2022/12/08 07:13:08;;;;;;;25.10;11.18;;;-0.80;99.90;;;;;;4969187;28;20109;-60
2022/12/08 07:15:35;;;;;;;19.20;10.00;;;-0.80;99.90;;;;;;4969185;28;20097;-60
2022/12/08 07:18:02;;;;;;;22.05;11.27;;;-0.80;99.90;;;;;;4967320;28;20536;-60
2022/12/08 07:20:29;;;;;;;19.52;11.63;;;-0.90;99.90;;;;;;4969262;28;20047;-60
2022/12/08 07:22:56;;;;;;;21.75;13.13;;;-0.80;99.90;;;;;;4968169;28;20142;-59
2022/12/08 07:25:23;;;;;;;20.35;11.00;;;-0.90;99.90;;;;;;4983980;28;20387;-60
2022/12/08 07:27:51;;;;;;;23.23;13.60;;;-0.90;99.90;;;;;;4981856;28;20054;-59
2022/12/08 07:30:18;;;;;;;33.40;16.15;;;-0.80;99.90;;;;;;4968906;28;20561;-60
2022/12/08 07:32:45;;;;;;;32.40;15.27;;;-0.80;99.90;;;;;;4967756;28;20047;-61
2022/12/08 07:35:12;;;;;;;31.45;15.98;;;-0.80;99.90;;;;;;4968895;28;20051;-59
2022/12/08 07:37:39;;;;;;;27.52;12.13;;;-0.80;99.90;;;;;;4983668;28;20085;-59
2022/12/08 07:40:06;;;;;;;22.38;12.02;;;-0.70;99.90;;;;;;4968901;28;20078;-56
2022/12/08 07:42:33;;;;;;;27.02;10.93;;;-0.80;99.90;;;;;;4968700;28;20133;-59
2022/12/08 07:45:01;;;;;;;21.70;11.27;;;-0.80;99.90;;;;;;4968295;28;20097;-67
2022/12/08 07:47:27;;;;;;;19.13;10.40;;;-0.80;99.90;;;;;;4968800;28;20564;-56
2022/12/08 07:49:54;;;;;;;22.95;10.38;;;-0.60;99.90;;;;;;4968756;28;20113;-56
2022/12/08 07:52:22;;;;;;;25.17;13.63;;;-0.80;99.90;;;;;;4960135;28;20198;-55
2022/12/08 07:54:48;;;;;;;23.27;10.05;;;-0.80;99.90;;;;;;4968006;28;20082;-55
2022/12/08 07:57:15;;;;;;;22.23;11.30;;;-0.80;99.90;;;;;;4968805;28;20085;-58
2022/12/08 07:59:42;;;;;;;25.45;12.30;;;-0.80;99.90;;;;;;4967738;28;20058;-58
2022/12/08 08:02:18;;;;;;;26.00;11.10;;;-0.80;99.90;;;;;;4984127;28;20046;-58
2022/12/08 08:04:51;;;;;;;21.92;11.20;;;-0.80;99.90;;;;;;4963855;28;20150;-62
2022/12/08 08:07:18;;;;;;;22.13;10.75;;;-0.80;99.90;;;;;;4966878;28;20138;-58
2022/12/08 08:09:45;;;;;;;27.02;13.88;;;-0.70;99.90;;;;;;4963775;28;20074;-59
2022/12/08 08:12:12;;;;;;;31.63;15.18;;;-0.90;99.90;;;;;;4960204;28;20042;-59
2022/12/08 08:14:59;;;;;;;22.77;10.90;;;-0.90;99.90;;;;;;4965711;28;20039;-71
2022/12/08 08:17:27;;;;;;;22.20;10.38;;;-0.70;99.90;;;;;;4968217;28;20086;-57
2022/12/08 08:19:54;;;;;;;17.90;10.25;;;-0.90;99.90;;;;;;4971327;28;20053;-58
2022/12/08 08:22:21;;;;;;;23.92;11.55;;;-0.80;99.90;;;;;;4966912;28;20057;-58
2022/12/08 08:24:47;;;;;;;19.85;11.80;;;-0.80;99.90;;;;;;4961961;28;20043;-57
2022/12/08 08:27:14;;;;;;;26.23;12.10;;;-0.80;99.90;;;;;;4962467;28;20109;-56
2022/12/08 08:29:41;;;;;;;23.35;12.00;;;-0.80;99.90;;;;;;4965108;28;20086;-57
2022/12/08 08:32:08;;;;;;;18.45;9.45;;;-0.70;99.90;;;;;;4962721;28;20071;-59
2022/12/08 08:34:35;;;;;;;30.27;11.52;;;-0.70;99.90;;;;;;4972646;28;20059;-58
2022/12/08 08:37:02;;;;;;;23.23;11.25;;;-0.70;99.90;;;;;;4976115;28;20074;-57
2022/12/08 08:39:30;;;;;;;24.38;11.70;;;-0.70;99.90;;;;;;4970612;28;20053;-60
2022/12/08 08:41:57;;;;;;;19.83;10.20;;;-0.70;99.90;;;;;;4971399;28;20051;-60
2022/12/08 08:44:24;;;;;;;18.80;9.57;;;-0.80;99.90;;;;;;4986570;28;20106;-61
2022/12/08 08:46:51;;;;;;;25.60;11.90;;;-0.80;99.90;;;;;;4970175;28;20078;-58
2022/12/08 08:49:18;;;;;;;24.88;10.48;;;-0.70;99.90;;;;;;4961630;28;20529;-59
2022/12/08 08:51:45;;;;;;;24.90;12.57;;;-0.70;99.90;;;;;;4965015;28;20070;-59
2022/12/08 08:54:11;;;;;;;23.30;10.98;;;-0.60;99.90;;;;;;4971165;28;20078;-58
2022/12/08 08:56:38;;;;;;;20.27;10.77;;;-0.60;99.90;;;;;;4966665;28;20081;-60
2022/12/08 08:59:05;;;;;;;22.98;11.13;;;-0.60;99.90;;;;;;4971824;28;20050;-60
2022/12/08 09:01:32;;;;;;;24.52;12.30;;;-0.50;99.90;;;;;;4971472;28;20054;-58
2022/12/08 09:04:00;;;;;;;22.83;10.45;;;-0.50;99.90;;;;;;4971506;28;20050;-60
2022/12/08 09:06:27;;;;;;;23.95;11.38;;;-0.50;99.90;;;;;;4971633;28;20054;-59
2022/12/08 09:08:54;;;;;;;20.05;10.65;;;-0.50;99.90;;;;;;4970781;28;20125;-59
2022/12/08 09:11:22;;;;;;;25.75;11.85;;;-0.40;99.90;;;;;;4968181;28;20187;-61
2022/12/08 09:13:49;;;;;;;24.58;10.75;;;-0.40;99.90;;;;;;4952566;28;20526;-60
2022/12/08 09:16:17;;;;;;;26.50;11.80;;;-0.40;99.90;;;;;;4965216;28;20493;-60
2022/12/08 09:18:44;;;;;;;24.25;12.05;;;-0.40;99.90;;;;;;4970340;28;20554;-59
2022/12/08 09:21:13;;;;;;;22.42;10.63;;;-0.40;99.90;;;;;;4970483;28;20201;-58
2022/12/08 09:23:41;;;;;;;21.50;10.25;;;-0.40;99.90;;;;;;4967593;28;20043;-60
2022/12/08 09:26:07;;;;;;;22.80;10.48;;;-0.30;99.90;;;;;;4969418;28;20128;-58
2022/12/08 09:28:34;;;;;;;24.30;11.32;;;-0.40;99.90;;;;;;4970648;28;20082;-58
2022/12/08 09:31:01;;;;;;;19.90;11.35;;;-0.30;99.90;;;;;;4969814;28;20489;-57
2022/12/08 09:33:28;;;;;;;28.23;11.57;;;-0.30;99.90;;;;;;4970626;28;20051;-59
2022/12/08 09:35:55;;;;;;;22.27;10.50;;;-0.20;99.90;;;;;;4970261;28;20413;-58
2022/12/08 09:38:22;;;;;;;22.23;10.85;;;-0.20;99.90;;;;;;4985281;28;20050;-59
2022/12/08 09:40:50;;;;;;;22.83;11.55;;;-0.10;99.90;;;;;;4970168;28;20053;-59
2022/12/08 09:43:50;;;;;;;29.40;10.82;;;-0.10;99.90;;;;;;4970538;28;20137;-58
2022/12/08 09:46:17;;;;;;;18.15;10.20;;;0.00;99.90;;;;;;4953868;28;20506;-59
2022/12/08 09:48:50;;;;;;;21.83;11.85;;;0.00;99.90;;;;;;4970146;28;20050;-59
2022/12/08 09:51:17;;;;;;;21.95;11.90;;;0.00;99.90;;;;;;4969484;28;20090;-58
2022/12/08 09:53:49;;;;;;;22.13;11.07;;;0.00;99.90;;;;;;4970547;28;20050;-59
2022/12/08 09:56:18;;;;;;;17.83;10.65;;;0.10;99.90;;;;;;4970355;28;20129;-57
2022/12/08 09:58:59;;;;;;;23.48;10.80;;;0.20;99.90;;;;;;4969448;28;20110;-59
2022/12/08 10:01:33;;;;;;;24.70;10.70;;;0.20;99.90;;;;;;4967758;28;20054;-59
2022/12/08 10:04:01;;;;;;;25.50;11.13;;;0.20;99.90;;;;;;4969503;28;20490;-58
2022/12/08 10:06:46;;;;;;;26.25;11.32;;;0.30;99.90;;;;;;4968723;28;20082;-60
2022/12/08 10:09:31;;;;;;;23.30;12.00;;;0.30;99.90;;;;;;4969499;28;20142;-58
2022/12/08 10:12:18;;;;;;;21.55;11.07;;;0.30;99.90;;;;;;4969795;28;20039;-58
2022/12/08 10:15:08;;;;;;;21.67;11.93;;;0.40;99.90;;;;;;4968935;28;20078;-59
2022/12/08 10:17:39;;;;;;;27.88;11.20;;;0.30;99.90;;;;;;4960497;28;20078;-56
2022/12/08 10:20:20;;;;;;;19.75;10.38;;;0.40;99.90;;;;;;4968845;28;20137;-58
2022/12/08 10:22:49;;;;;;;21.63;10.98;;;0.40;99.90;;;;;;4968769;28;20078;-59
2022/12/08 10:25:32;;;;;;;20.35;10.27;;;0.50;99.90;;;;;;4968808;28;20081;-59
2022/12/08 10:27:58;;;;;;;20.38;10.60;;;0.50;99.90;;;;;;4964803;28;20055;-57
2022/12/08 10:30:25;;;;;;;24.75;12.40;;;0.50;99.90;;;;;;4983275;28;20145;-58
2022/12/08 10:32:52;;;;;;;26.48;12.32;;;0.60;99.90;;;;;;4969370;28;20078;-57
2022/12/08 10:35:20;;;;;;;24.52;12.88;;;0.60;99.90;;;;;;4968684;28;20109;-59
2022/12/08 10:38:00;;;;;;;22.40;10.23;;;0.70;99.90;;;;;;4953224;28;20082;-60
2022/12/08 10:40:28;;;;;;;20.98;11.23;;;0.70;99.90;;;;;;4959844;28;20058;-59
2022/12/08 10:42:56;;;;;;;27.83;13.43;;;0.70;99.90;;;;;;4964873;28;20105;-59
2022/12/08 10:45:28;;;;;;;20.75;11.88;;;0.80;99.90;;;;;;4968271;28;20507;-57
2022/12/08 10:48:03;;;;;;;26.55;12.68;;;0.80;99.90;;;;;;4968293;28;20074;-60
2022/12/08 10:50:32;;;;;;;24.80;12.02;;;0.80;99.90;;;;;;4968113;28;20097;-60
2022/12/08 10:53:00;;;;;;;22.17;11.55;;;0.80;99.90;;;;;;4956066;28;20105;-60
2022/12/08 10:55:27;;;;;;;19.83;11.30;;;0.90;99.90;;;;;;4982618;28;20090;-59
2022/12/08 10:57:54;;;;;;;18.95;11.10;;;1.00;99.90;;;;;;4965789;28;20081;-60
2022/12/08 11:00:23;;;;;;;48.10;12.95;;;1.10;99.90;;;;;;4963729;28;20137;-58
2022/12/08 11:02:52;;;;;;;24.48;11.25;;;1.00;99.90;;;;;;4963119;28;20047;-59
2022/12/08 11:05:19;;;;;;;28.48;13.27;;;1.00;99.90;;;;;;4966764;28;20490;-59
2022/12/08 11:07:50;;;;;;;19.30;10.40;;;1.10;99.90;;;;;;4966798;28;20047;-60
2022/12/08 11:10:18;;;;;;;22.23;10.20;;;1.10;99.90;;;;;;4967387;28;20047;-60
2022/12/08 11:12:45;;;;;;;17.90;9.85;;;1.10;99.90;;;;;;4968125;28;20505;-58
2022/12/08 11:15:15;;;;;;;20.55;11.68;;;1.20;99.90;;;;;;4967599;28;20086;-59
2022/12/08 11:17:44;;;;;;;18.98;10.68;;;1.20;99.90;;;;;;4967763;28;20038;-61
2022/12/08 11:20:18;;;;;;;18.98;10.90;;;1.20;99.90;;;;;;4968935;28;20834;-61
2022/12/08 11:22:53;;;;;;;22.08;10.73;;;1.30;99.90;;;;;;4968130;28;20558;-60
2022/12/08 11:25:21;;;;;;;20.20;10.35;;;1.30;99.90;;;;;;4968949;28;20549;-60
2022/12/08 11:27:49;;;;;;;22.67;10.85;;;1.30;99.90;;;;;;4968023;28;20086;-60
2022/12/08 11:30:20;;;;;;;23.73;10.60;;;1.30;99.90;;;;;;4965269;28;20102;-60
2022/12/08 11:33:08;;;;;;;28.15;11.70;;;1.30;99.90;;;;;;4959615;28;20079;-60
2022/12/08 11:35:39;;;;;;;25.95;11.68;;;1.30;99.90;;;;;;4959527;28;20811;-58
2022/12/08 11:38:20;;;;;;;28.15;12.95;;;1.40;99.90;;;;;;4961913;28;20039;-60
2022/12/08 11:41:02;;;;;;;25.58;11.07;;;1.50;99.90;;;;;;4962699;28;20050;-59
2022/12/08 11:43:47;;;;;;;29.42;11.88;;;1.50;99.90;;;;;;4966235;28;20094;-60
2022/12/08 11:46:24;;;;;;;20.25;10.35;;;1.50;99.90;;;;;;4968031;28;20089;-60
2022/12/08 11:49:00;;;;;;;24.55;13.07;;;1.50;99.90;;;;;;4969051;28;20059;-61
2022/12/08 11:51:54;;;;;;;29.55;11.60;;;1.70;99.90;;;;;;4968671;28;20046;-59
2022/12/08 11:54:23;;;;;;;22.33;11.20;;;1.70;99.90;;;;;;4968432;28;20089;-59
2022/12/08 11:56:55;;;;;;;22.70;10.82;;;1.70;99.90;;;;;;4967880;28;20057;-60
2022/12/08 11:59:37;;;;;;;25.35;12.30;;;1.70;99.90;;;;;;4953505;28;20053;-60
2022/12/08 12:02:04;;;;;;;22.30;12.18;;;1.70;99.90;;;;;;4969403;28;20090;-60
2022/12/08 12:04:36;;;;;;;22.15;11.20;;;1.80;99.90;;;;;;4949129;28;20047;-60
2022/12/08 12:07:13;;;;;;;31.02;16.35;;;1.80;99.90;;;;;;4963751;28;20050;-60
2022/12/08 12:09:43;;;;;;;25.83;12.90;;;1.90;99.90;;;;;;4948748;29;20087;-60
2022/12/08 12:12:32;;;;;;;25.98;13.43;;;2.00;99.90;;;;;;4963919;28;20471;-60
2022/12/08 12:15:33;;;;;;;23.23;12.30;;;2.00;99.90;;;;;;4949017;29;20055;-60
2022/12/08 12:18:03;;;;;;;;;;;2.10;99.90;;;;;;4961283;28;20129;-61
2022/12/08 12:20:41;;;;;;;62.63;32.38;;;2.10;99.90;;;;;;4983860;28;19961;-60
2022/12/08 12:23:15;;;;;;;30.92;13.30;;;2.20;99.90;;;;;;4969418;28;20101;-61
2022/12/08 12:25:50;;;;;;;;;;;2.20;99.90;;;;;;4968948;28;20061;-59
2022/12/08 12:28:16;;;;;;;33.57;13.37;;;2.20;99.90;;;;;;4967385;28;19930;-59
2022/12/08 12:31:03;;;;;;;20.40;11.82;;;2.20;99.90;;;;;;4967009;28;20351;-59
2022/12/08 12:33:30;;;;;;;25.45;12.98;;;2.30;99.90;;;;;;4624285;28;10000134;-61
2022/12/08 12:36:00;;;;;;;25.33;12.23;;;2.30;99.90;;;;;;4985854;28;20082;-60
2022/12/08 12:41:28;;;;;;;24.30;11.90;;;2.50;99.90;;;;;;4970784;28;20079;-60
2022/12/08 12:44:07;;;;;;;26.60;12.93;;;2.50;99.90;;;;;;4970432;28;20082;-59
2022/12/08 12:46:49;;;;;;;21.02;11.73;;;2.50;99.90;;;;;;4971615;28;20654;-60
2022/12/08 12:49:38;;;;;;;25.67;10.75;;;2.50;99.90;;;;;;4968522;28;20047;-60
2022/12/08 12:52:22;;;;;;;22.20;11.10;;;2.60;99.90;;;;;;4971708;28;20050;-60
2022/12/08 12:54:49;;;;;;;23.83;9.98;;;2.60;99.90;;;;;;4971412;28;20086;-60
2022/12/08 12:57:19;;;;;;;23.88;11.48;;;2.60;99.90;;;;;;4966888;28;20055;-60
2022/12/08 12:59:47;;;;;;;23.40;12.25;;;2.70;99.90;;;;;;4970517;28;20046;-60
2022/12/08 13:02:37;;;;;;;25.00;11.07;;;2.70;99.90;;;;;;4969681;28;20078;-60